LOP weather

Lopez Airstrip
Mexicali, Baja California, Mexico

Public forecast

Using degrees Celsius for public forecast. Weather courtesy of forecast.io.

METAR (pilot weather report)

Closest report is General Rodolfo Sánchez Taboada International Airport, 16.5 nm (30.5 km) NW. Retrieved 2019/08/24 22:46 UTC (1 hour ago):

MMML 242246Z 11012KT 10SM SKC 37/19 A2984

TAF (pilot weather forecast)

Closest forecast is General Rodolfo Sánchez Taboada International Airport, 16.5 nm (30.5 km) NW. Retrieved 2019/08/24 18:12 UTC (6 hours ago):

TAF MMML 241709Z 2418/2518 14010KT P6SM SCT020 BECMG 2421/2422 SKC FM250600 14005KT 5SM HZ BKN015 TEMPO 2512/2515 3SM BR